sensor_id;sensor_type;location;lat;lon;timestamp;P1;durP1;ratioP1;P2;durP2;ratioP2
23614;SDS011;11985;49.404;7.734;2023-03-23T00:03:10;2.33;;;1.10;;
23614;SDS011;11985;49.404;7.734;2023-03-23T00:08:11;1.77;;;1.20;;
23614;SDS011;11985;49.404;7.734;2023-03-23T00:13:15;1.95;;;1.00;;
23614;SDS011;11985;49.404;7.734;2023-03-23T00:18:21;2.03;;;1.20;;
23614;SDS011;11985;49.404;7.734;2023-03-23T00:23:23;3.60;;;1.08;;
23614;SDS011;11985;49.404;7.734;2023-03-23T00:28:26;1.73;;;1.20;;
23614;SDS011;11985;49.404;7.734;2023-03-23T00:33:30;1.77;;;1.20;;
23614;SDS011;11985;49.404;7.734;2023-03-23T00:38:38;1.83;;;1.40;;
23614;SDS011;11985;49.404;7.734;2023-03-23T00:43:41;2.53;;;1.10;;
23614;SDS011;11985;49.404;7.734;2023-03-23T00:48:45;2.13;;;1.27;;
23614;SDS011;11985;49.404;7.734;2023-03-23T00:53:46;2.20;;;1.17;;
23614;SDS011;11985;49.404;7.734;2023-03-23T00:58:48;2.13;;;1.10;;
23614;SDS011;11985;49.404;7.734;2023-03-23T01:03:51;2.55;;;1.10;;
23614;SDS011;11985;49.404;7.734;2023-03-23T01:09:00;2.38;;;1.30;;
23614;SDS011;11985;49.404;7.734;2023-03-23T01:14:06;1.80;;;1.33;;
23614;SDS011;11985;49.404;7.734;2023-03-23T01:19:08;1.73;;;1.17;;
23614;SDS011;11985;49.404;7.734;2023-03-23T01:24:10;2.72;;;1.20;;
23614;SDS011;11985;49.404;7.734;2023-03-23T01:29:12;3.50;;;1.23;;
23614;SDS011;11985;49.404;7.734;2023-03-23T01:34:15;3.72;;;1.75;;
23614;SDS011;11985;49.404;7.734;2023-03-23T01:39:16;2.42;;;1.25;;
23614;SDS011;11985;49.404;7.734;2023-03-23T01:49:58;1.60;;;1.23;;
23614;SDS011;11985;49.404;7.734;2023-03-23T01:55:00;1.42;;;1.10;;
23614;SDS011;11985;49.404;7.734;2023-03-23T02:00:03;2.15;;;1.10;;
23614;SDS011;11985;49.404;7.734;2023-03-23T02:05:17;2.13;;;1.00;;
23614;SDS011;11985;49.404;7.734;2023-03-23T02:10:23;1.65;;;1.10;;
23614;SDS011;11985;49.404;7.734;2023-03-23T02:15:25;3.30;;;1.20;;
23614;SDS011;11985;49.404;7.734;2023-03-23T02:20:34;1.90;;;1.07;;
23614;SDS011;11985;49.404;7.734;2023-03-23T02:25:53;1.83;;;1.15;;
23614;SDS011;11985;49.404;7.734;2023-03-23T02:31:03;4.25;;;1.40;;
23614;SDS011;11985;49.404;7.734;2023-03-23T02:36:21;4.05;;;1.30;;
23614;SDS011;11985;49.404;7.734;2023-03-23T02:41:27;1.80;;;1.00;;
23614;SDS011;11985;49.404;7.734;2023-03-23T02:46:31;1.60;;;1.15;;
23614;SDS011;11985;49.404;7.734;2023-03-23T02:51:34;1.77;;;1.20;;
23614;SDS011;11985;49.404;7.734;2023-03-23T02:56:38;1.48;;;1.10;;
23614;SDS011;11985;49.404;7.734;2023-03-23T03:01:46;5.63;;;1.00;;
23614;SDS011;11985;49.404;7.734;2023-03-23T03:07:05;2.25;;;1.33;;
23614;SDS011;11985;49.404;7.734;2023-03-23T03:12:21;3.40;;;1.30;;
23614;SDS011;11985;49.404;7.734;2023-03-23T03:17:31;1.67;;;1.00;;
23614;SDS011;11985;49.404;7.734;2023-03-23T03:22:34;2.38;;;1.20;;
23614;SDS011;11985;49.404;7.734;2023-03-23T03:27:42;4.80;;;1.15;;
23614;SDS011;11985;49.404;7.734;2023-03-23T03:32:49;2.22;;;1.10;;
23614;SDS011;11985;49.404;7.734;2023-03-23T03:37:56;2.60;;;1.17;;
23614;SDS011;11985;49.404;7.734;2023-03-23T03:42:57;2.42;;;1.40;;
23614;SDS011;11985;49.404;7.734;2023-03-23T03:47:59;3.55;;;1.60;;
23614;SDS011;11985;49.404;7.734;2023-03-23T03:53:03;1.67;;;1.23;;
23614;SDS011;11985;49.404;7.734;2023-03-23T03:58:05;2.87;;;1.40;;
23614;SDS011;11985;49.404;7.734;2023-03-23T04:03:08;3.70;;;1.63;;
23614;SDS011;11985;49.404;7.734;2023-03-23T04:08:11;3.95;;;1.70;;
23614;SDS011;11985;49.404;7.734;2023-03-23T04:13:13;2.53;;;1.55;;
23614;SDS011;11985;49.404;7.734;2023-03-23T04:18:15;3.05;;;1.60;;
23614;SDS011;11985;49.404;7.734;2023-03-23T04:23:20;5.50;;;1.50;;
23614;SDS011;11985;49.404;7.734;2023-03-23T04:28:22;6.32;;;1.60;;
23614;SDS011;11985;49.404;7.734;2023-03-23T04:33:25;3.17;;;1.70;;
23614;SDS011;11985;49.404;7.734;2023-03-23T04:38:29;5.32;;;1.73;;
23614;SDS011;11985;49.404;7.734;2023-03-23T04:43:32;3.03;;;1.55;;
23614;SDS011;11985;49.404;7.734;2023-03-23T04:48:41;6.22;;;1.45;;
23614;SDS011;11985;49.404;7.734;2023-03-23T04:53:44;2.97;;;1.83;;
23614;SDS011;11985;49.404;7.734;2023-03-23T04:58:46;3.17;;;1.90;;
23614;SDS011;11985;49.404;7.734;2023-03-23T05:03:47;2.92;;;1.52;;
23614;SDS011;11985;49.404;7.734;2023-03-23T05:08:50;3.08;;;1.75;;
23614;SDS011;11985;49.404;7.734;2023-03-23T05:13:52;6.65;;;2.00;;
23614;SDS011;11985;49.404;7.734;2023-03-23T05:18:53;3.65;;;1.70;;
23614;SDS011;11985;49.404;7.734;2023-03-23T05:23:58;3.30;;;1.95;;
23614;SDS011;11985;49.404;7.734;2023-03-23T05:29:00;3.03;;;1.92;;
23614;SDS011;11985;49.404;7.734;2023-03-23T05:34:02;4.03;;;2.08;;
23614;SDS011;11985;49.404;7.734;2023-03-23T05:39:07;2.10;;;1.55;;
23614;SDS011;11985;49.404;7.734;2023-03-23T05:44:09;3.30;;;2.10;;
23614;SDS011;11985;49.404;7.734;2023-03-23T05:49:13;5.80;;;2.35;;
23614;SDS011;11985;49.404;7.734;2023-03-23T05:54:17;4.03;;;2.30;;
23614;SDS011;11985;49.404;7.734;2023-03-23T05:59:19;3.92;;;2.25;;
23614;SDS011;11985;49.404;7.734;2023-03-23T06:04:20;2.90;;;2.20;;
23614;SDS011;11985;49.404;7.734;2023-03-23T06:09:26;3.30;;;1.97;;
23614;SDS011;11985;49.404;7.734;2023-03-23T06:14:28;3.67;;;2.05;;
23614;SDS011;11985;49.404;7.734;2023-03-23T06:19:29;3.60;;;2.20;;
23614;SDS011;11985;49.404;7.734;2023-03-23T06:24:32;4.22;;;2.42;;
23614;SDS011;11985;49.404;7.734;2023-03-23T06:29:34;3.15;;;2.47;;
23614;SDS011;11985;49.404;7.734;2023-03-23T06:34:36;6.95;;;2.10;;
23614;SDS011;11985;49.404;7.734;2023-03-23T06:39:40;5.32;;;2.33;;
23614;SDS011;11985;49.404;7.734;2023-03-23T06:44:41;6.80;;;2.67;;
23614;SDS011;11985;49.404;7.734;2023-03-23T06:49:43;6.97;;;2.50;;
23614;SDS011;11985;49.404;7.734;2023-03-23T06:54:46;6.43;;;2.50;;
23614;SDS011;11985;49.404;7.734;2023-03-23T06:59:48;4.18;;;2.38;;
23614;SDS011;11985;49.404;7.734;2023-03-23T07:04:49;5.15;;;2.53;;
23614;SDS011;11985;49.404;7.734;2023-03-23T07:09:55;4.30;;;2.33;;
23614;SDS011;11985;49.404;7.734;2023-03-23T07:14:58;10.35;;;2.17;;
23614;SDS011;11985;49.404;7.734;2023-03-23T07:19:59;4.25;;;2.70;;
23614;SDS011;11985;49.404;7.734;2023-03-23T07:25:04;6.43;;;2.63;;
23614;SDS011;11985;49.404;7.734;2023-03-23T07:30:06;3.70;;;2.22;;
23614;SDS011;11985;49.404;7.734;2023-03-23T07:35:09;5.20;;;2.30;;
23614;SDS011;11985;49.404;7.734;2023-03-23T07:40:12;6.90;;;2.50;;
23614;SDS011;11985;49.404;7.734;2023-03-23T07:45:15;4.20;;;2.40;;
23614;SDS011;11985;49.404;7.734;2023-03-23T07:50:17;3.67;;;2.80;;
23614;SDS011;11985;49.404;7.734;2023-03-23T07:55:23;7.23;;;2.80;;
23614;SDS011;11985;49.404;7.734;2023-03-23T08:00:25;5.07;;;2.50;;
23614;SDS011;11985;49.404;7.734;2023-03-23T08:05:26;5.45;;;2.40;;
23614;SDS011;11985;49.404;7.734;2023-03-23T08:10:30;4.18;;;2.50;;
23614;SDS011;11985;49.404;7.734;2023-03-23T08:15:31;3.95;;;2.33;;
23614;SDS011;11985;49.404;7.734;2023-03-23T08:20:37;3.15;;;2.22;;
23614;SDS011;11985;49.404;7.734;2023-03-23T08:25:41;5.25;;;2.55;;
23614;SDS011;11985;49.404;7.734;2023-03-23T08:30:43;4.88;;;1.98;;
23614;SDS011;11985;49.404;7.734;2023-03-23T08:35:45;4.03;;;2.08;;
23614;SDS011;11985;49.404;7.734;2023-03-23T08:40:48;6.75;;;2.55;;
23614;SDS011;11985;49.404;7.734;2023-03-23T08:45:50;3.65;;;2.40;;
23614;SDS011;11985;49.404;7.734;2023-03-23T08:50:53;5.32;;;2.13;;
23614;SDS011;11985;49.404;7.734;2023-03-23T08:55:56;7.75;;;2.80;;
23614;SDS011;11985;49.404;7.734;2023-03-23T09:01:03;3.58;;;2.45;;
23614;SDS011;11985;49.404;7.734;2023-03-23T09:06:06;9.18;;;3.70;;
23614;SDS011;11985;49.404;7.734;2023-03-23T09:11:13;5.78;;;3.85;;
23614;SDS011;11985;49.404;7.734;2023-03-23T09:16:15;6.15;;;3.60;;
23614;SDS011;11985;49.404;7.734;2023-03-23T09:21:17;6.05;;;4.00;;
23614;SDS011;11985;49.404;7.734;2023-03-23T09:26:20;3.33;;;2.63;;
23614;SDS011;11985;49.404;7.734;2023-03-23T09:31:22;3.35;;;2.70;;
23614;SDS011;11985;49.404;7.734;2023-03-23T09:36:26;4.45;;;3.20;;
23614;SDS011;11985;49.404;7.734;2023-03-23T09:41:40;5.80;;;2.97;;
23614;SDS011;11985;49.404;7.734;2023-03-23T09:46:58;7.18;;;2.65;;
23614;SDS011;11985;49.404;7.734;2023-03-23T09:52:03;5.22;;;3.20;;
23614;SDS011;11985;49.404;7.734;2023-03-23T09:57:14;4.88;;;2.60;;
23614;SDS011;11985;49.404;7.734;2023-03-23T10:02:23;5.20;;;2.70;;
23614;SDS011;11985;49.404;7.734;2023-03-23T10:07:29;3.42;;;2.72;;
23614;SDS011;11985;49.404;7.734;2023-03-23T10:12:33;4.30;;;2.58;;
23614;SDS011;11985;49.404;7.734;2023-03-23T10:17:45;6.43;;;2.22;;
23614;SDS011;11985;49.404;7.734;2023-03-23T10:22:50;3.50;;;2.13;;
23614;SDS011;11985;49.404;7.734;2023-03-23T10:27:59;2.97;;;1.73;;
23614;SDS011;11985;49.404;7.734;2023-03-23T10:33:10;3.88;;;2.08;;
23614;SDS011;11985;49.404;7.734;2023-03-23T10:38:19;3.65;;;2.33;;
23614;SDS011;11985;49.404;7.734;2023-03-23T10:43:26;5.28;;;2.75;;
23614;SDS011;11985;49.404;7.734;2023-03-23T10:48:30;5.10;;;2.30;;
23614;SDS011;11985;49.404;7.734;2023-03-23T10:53:35;3.08;;;2.50;;
23614;SDS011;11985;49.404;7.734;2023-03-23T10:58:39;4.53;;;2.53;;
23614;SDS011;11985;49.404;7.734;2023-03-23T11:03:42;5.13;;;2.42;;
23614;SDS011;11985;49.404;7.734;2023-03-23T11:08:49;4.63;;;2.50;;
23614;SDS011;11985;49.404;7.734;2023-03-23T11:14:00;4.90;;;2.80;;
23614;SDS011;11985;49.404;7.734;2023-03-23T11:19:11;5.18;;;2.75;;
23614;SDS011;11985;49.404;7.734;2023-03-23T11:24:14;4.97;;;2.83;;
23614;SDS011;11985;49.404;7.734;2023-03-23T11:29:18;6.28;;;3.75;;
23614;SDS011;11985;49.404;7.734;2023-03-23T11:34:23;5.55;;;2.50;;
23614;SDS011;11985;49.404;7.734;2023-03-23T11:39:28;3.72;;;2.28;;
23614;SDS011;11985;49.404;7.734;2023-03-23T11:44:33;2.47;;;2.25;;
23614;SDS011;11985;49.404;7.734;2023-03-23T11:49:39;3.65;;;2.17;;
23614;SDS011;11985;49.404;7.734;2023-03-23T11:54:48;2.97;;;2.10;;
23614;SDS011;11985;49.404;7.734;2023-03-23T11:59:56;3.10;;;2.38;;
23614;SDS011;11985;49.404;7.734;2023-03-23T12:05:11;2.67;;;2.13;;
23614;SDS011;11985;49.404;7.734;2023-03-23T12:10:27;2.15;;;1.80;;
23614;SDS011;11985;49.404;7.734;2023-03-23T12:15:38;3.95;;;2.50;;
23614;SDS011;11985;49.404;7.734;2023-03-23T12:20:46;4.75;;;2.47;;
23614;SDS011;11985;49.404;7.734;2023-03-23T12:26:03;2.58;;;2.17;;
23614;SDS011;11985;49.404;7.734;2023-03-23T12:31:14;3.17;;;2.40;;
23614;SDS011;11985;49.404;7.734;2023-03-23T12:36:24;6.72;;;3.33;;
23614;SDS011;11985;49.404;7.734;2023-03-23T12:41:35;4.40;;;2.60;;
23614;SDS011;11985;49.404;7.734;2023-03-23T12:46:52;2.20;;;1.58;;
23614;SDS011;11985;49.404;7.734;2023-03-23T12:52:04;3.80;;;2.10;;
23614;SDS011;11985;49.404;7.734;2023-03-23T12:57:14;3.28;;;1.67;;
23614;SDS011;11985;49.404;7.734;2023-03-23T13:02:21;4.03;;;2.40;;
23614;SDS011;11985;49.404;7.734;2023-03-23T13:07:26;3.42;;;2.47;;
23614;SDS011;11985;49.404;7.734;2023-03-23T13:12:33;3.65;;;2.15;;
23614;SDS011;11985;49.404;7.734;2023-03-23T13:17:42;4.07;;;2.05;;
23614;SDS011;11985;49.404;7.734;2023-03-23T13:22:52;4.28;;;1.83;;
23614;SDS011;11985;49.404;7.734;2023-03-23T13:27:58;3.15;;;2.05;;
23614;SDS011;11985;49.404;7.734;2023-03-23T13:33:03;2.92;;;2.22;;
23614;SDS011;11985;49.404;7.734;2023-03-23T13:38:11;3.00;;;1.90;;
23614;SDS011;11985;49.404;7.734;2023-03-23T13:43:26;3.03;;;2.05;;
23614;SDS011;11985;49.404;7.734;2023-03-23T13:48:38;3.38;;;1.75;;
23614;SDS011;11985;49.404;7.734;2023-03-23T13:53:45;10.70;;;5.85;;
23614;SDS011;11985;49.404;7.734;2023-03-23T13:58:49;4.10;;;2.10;;
23614;SDS011;11985;49.404;7.734;2023-03-23T14:03:55;3.67;;;1.70;;
23614;SDS011;11985;49.404;7.734;2023-03-23T14:09:03;4.32;;;1.60;;
23614;SDS011;11985;49.404;7.734;2023-03-23T14:14:07;4.03;;;1.98;;
23614;SDS011;11985;49.404;7.734;2023-03-23T14:19:19;3.47;;;1.60;;
23614;SDS011;11985;49.404;7.734;2023-03-23T14:24:25;3.58;;;1.90;;
23614;SDS011;11985;49.404;7.734;2023-03-23T14:29:28;2.45;;;1.52;;
23614;SDS011;11985;49.404;7.734;2023-03-23T14:34:32;3.85;;;1.40;;
23614;SDS011;11985;49.404;7.734;2023-03-23T14:39:35;3.58;;;1.98;;
23614;SDS011;11985;49.404;7.734;2023-03-23T14:44:39;4.85;;;1.83;;
23614;SDS011;11985;49.404;7.734;2023-03-23T14:49:44;3.97;;;1.98;;
23614;SDS011;11985;49.404;7.734;2023-03-23T14:54:46;8.05;;;2.55;;
23614;SDS011;11985;49.404;7.734;2023-03-23T14:59:48;6.53;;;2.47;;
23614;SDS011;11985;49.404;7.734;2023-03-23T15:04:52;4.70;;;2.42;;
23614;SDS011;11985;49.404;7.734;2023-03-23T15:09:55;2.78;;;1.98;;
23614;SDS011;11985;49.404;7.734;2023-03-23T15:14:59;5.65;;;2.53;;
23614;SDS011;11985;49.404;7.734;2023-03-23T15:20:08;5.45;;;2.22;;
23614;SDS011;11985;49.404;7.734;2023-03-23T15:25:12;4.38;;;2.80;;
23614;SDS011;11985;49.404;7.734;2023-03-23T15:30:30;6.25;;;2.47;;
23614;SDS011;11985;49.404;7.734;2023-03-23T15:35:37;3.53;;;2.10;;
23614;SDS011;11985;49.404;7.734;2023-03-23T15:40:41;4.07;;;2.08;;
23614;SDS011;11985;49.404;7.734;2023-03-23T15:45:52;6.13;;;2.23;;
23614;SDS011;11985;49.404;7.734;2023-03-23T15:50:56;4.93;;;2.08;;
23614;SDS011;11985;49.404;7.734;2023-03-23T15:55:59;2.33;;;1.55;;
23614;SDS011;11985;49.404;7.734;2023-03-23T16:01:02;3.08;;;1.90;;
23614;SDS011;11985;49.404;7.734;2023-03-23T16:11:11;3.80;;;1.98;;
23614;SDS011;11985;49.404;7.734;2023-03-23T16:16:15;6.05;;;1.90;;
23614;SDS011;11985;49.404;7.734;2023-03-23T16:21:19;5.43;;;2.28;;
23614;SDS011;11985;49.404;7.734;2023-03-23T16:26:21;3.97;;;2.65;;
23614;SDS011;11985;49.404;7.734;2023-03-23T16:31:23;11.48;;;4.90;;
23614;SDS011;11985;49.404;7.734;2023-03-23T16:36:25;13.05;;;5.88;;
23614;SDS011;11985;49.404;7.734;2023-03-23T16:41:27;6.35;;;3.97;;
23614;SDS011;11985;49.404;7.734;2023-03-23T16:46:29;4.78;;;3.50;;
23614;SDS011;11985;49.404;7.734;2023-03-23T16:51:32;6.70;;;2.90;;
23614;SDS011;11985;49.404;7.734;2023-03-23T16:56:34;4.97;;;3.38;;
23614;SDS011;11985;49.404;7.734;2023-03-23T17:01:36;5.68;;;3.33;;
23614;SDS011;11985;49.404;7.734;2023-03-23T17:06:38;7.00;;;3.60;;
23614;SDS011;11985;49.404;7.734;2023-03-23T17:11:42;7.35;;;4.00;;
23614;SDS011;11985;49.404;7.734;2023-03-23T17:16:43;8.20;;;3.50;;
23614;SDS011;11985;49.404;7.734;2023-03-23T17:21:46;6.07;;;4.43;;
23614;SDS011;11985;49.404;7.734;2023-03-23T17:26:48;7.63;;;4.50;;
23614;SDS011;11985;49.404;7.734;2023-03-23T17:31:49;7.57;;;4.07;;
23614;SDS011;11985;49.404;7.734;2023-03-23T17:36:52;7.03;;;4.55;;
23614;SDS011;11985;49.404;7.734;2023-03-23T17:41:53;9.10;;;5.13;;
23614;SDS011;11985;49.404;7.734;2023-03-23T17:46:57;10.40;;;5.03;;
23614;SDS011;11985;49.404;7.734;2023-03-23T17:52:01;8.73;;;5.63;;
23614;SDS011;11985;49.404;7.734;2023-03-23T17:57:04;9.57;;;6.30;;
23614;SDS011;11985;49.404;7.734;2023-03-23T18:02:05;9.63;;;6.40;;
23614;SDS011;11985;49.404;7.734;2023-03-23T18:07:08;14.68;;;7.15;;
23614;SDS011;11985;49.404;7.734;2023-03-23T18:12:10;12.18;;;6.55;;
23614;SDS011;11985;49.404;7.734;2023-03-23T18:17:11;26.33;;;13.82;;
23614;SDS011;11985;49.404;7.734;2023-03-23T18:22:14;9.18;;;5.43;;
23614;SDS011;11985;49.404;7.734;2023-03-23T18:27:16;6.93;;;4.47;;
23614;SDS011;11985;49.404;7.734;2023-03-23T18:32:17;7.55;;;4.68;;
23614;SDS011;11985;49.404;7.734;2023-03-23T18:37:21;11.82;;;4.70;;
23614;SDS011;11985;49.404;7.734;2023-03-23T18:42:22;8.40;;;4.63;;
23614;SDS011;11985;49.404;7.734;2023-03-23T18:47:25;9.77;;;5.13;;
23614;SDS011;11985;49.404;7.734;2023-03-23T18:52:28;6.90;;;4.63;;
23614;SDS011;11985;49.404;7.734;2023-03-23T18:57:30;7.72;;;5.40;;
23614;SDS011;11985;49.404;7.734;2023-03-23T19:02:32;8.98;;;4.93;;
23614;SDS011;11985;49.404;7.734;2023-03-23T19:07:36;9.02;;;4.78;;
23614;SDS011;11985;49.404;7.734;2023-03-23T19:12:38;10.82;;;5.07;;
23614;SDS011;11985;49.404;7.734;2023-03-23T19:17:40;11.85;;;5.28;;
23614;SDS011;11985;49.404;7.734;2023-03-23T19:22:43;10.85;;;5.55;;
23614;SDS011;11985;49.404;7.734;2023-03-23T19:27:45;9.35;;;5.68;;
23614;SDS011;11985;49.404;7.734;2023-03-23T19:32:47;7.70;;;5.50;;
23614;SDS011;11985;49.404;7.734;2023-03-23T19:37:50;12.43;;;5.57;;
23614;SDS011;11985;49.404;7.734;2023-03-23T19:42:52;10.40;;;5.75;;
23614;SDS011;11985;49.404;7.734;2023-03-23T19:47:53;10.38;;;4.95;;
23614;SDS011;11985;49.404;7.734;2023-03-23T19:52:56;8.82;;;4.93;;
23614;SDS011;11985;49.404;7.734;2023-03-23T19:57:58;6.80;;;4.70;;
23614;SDS011;11985;49.404;7.734;2023-03-23T20:02:59;10.10;;;5.10;;
23614;SDS011;11985;49.404;7.734;2023-03-23T20:08:02;10.55;;;4.57;;
23614;SDS011;11985;49.404;7.734;2023-03-23T20:13:04;9.93;;;4.97;;
23614;SDS011;11985;49.404;7.734;2023-03-23T20:18:06;8.75;;;5.10;;
23614;SDS011;11985;49.404;7.734;2023-03-23T20:23:10;10.05;;;5.38;;
23614;SDS011;11985;49.404;7.734;2023-03-23T20:28:11;6.38;;;4.10;;
23614;SDS011;11985;49.404;7.734;2023-03-23T20:33:13;8.57;;;5.65;;
23614;SDS011;11985;49.404;7.734;2023-03-23T20:38:17;11.88;;;4.35;;
23614;SDS011;11985;49.404;7.734;2023-03-23T20:43:18;7.07;;;3.97;;
23614;SDS011;11985;49.404;7.734;2023-03-23T20:48:20;7.35;;;4.03;;
23614;SDS011;11985;49.404;7.734;2023-03-23T20:53:23;7.82;;;4.40;;
23614;SDS011;11985;49.404;7.734;2023-03-23T20:58:28;9.15;;;4.82;;
23614;SDS011;11985;49.404;7.734;2023-03-23T21:03:30;7.40;;;3.80;;
23614;SDS011;11985;49.404;7.734;2023-03-23T21:08:36;7.03;;;4.20;;
23614;SDS011;11985;49.404;7.734;2023-03-23T21:13:39;6.90;;;4.13;;
23614;SDS011;11985;49.404;7.734;2023-03-23T21:18:41;7.90;;;4.45;;
23614;SDS011;11985;49.404;7.734;2023-03-23T21:23:44;7.90;;;4.63;;
23614;SDS011;11985;49.404;7.734;2023-03-23T21:28:51;9.25;;;4.40;;
23614;SDS011;11985;49.404;7.734;2023-03-23T21:33:58;9.63;;;4.20;;
23614;SDS011;11985;49.404;7.734;2023-03-23T21:39:02;7.82;;;4.50;;
23614;SDS011;11985;49.404;7.734;2023-03-23T21:44:05;12.07;;;4.23;;
23614;SDS011;11985;49.404;7.734;2023-03-23T21:49:09;8.50;;;4.13;;
23614;SDS011;11985;49.404;7.734;2023-03-23T21:54:14;8.95;;;4.88;;
23614;SDS011;11985;49.404;7.734;2023-03-23T21:59:16;9.38;;;3.92;;
23614;SDS011;11985;49.404;7.734;2023-03-23T22:04:18;8.27;;;4.47;;
23614;SDS011;11985;49.404;7.734;2023-03-23T22:09:21;6.82;;;4.35;;
23614;SDS011;11985;49.404;7.734;2023-03-23T22:14:23;10.85;;;4.47;;
23614;SDS011;11985;49.404;7.734;2023-03-23T22:19:25;8.57;;;4.63;;
23614;SDS011;11985;49.404;7.734;2023-03-23T22:24:28;9.05;;;4.25;;
23614;SDS011;11985;49.404;7.734;2023-03-23T22:29:31;6.82;;;4.05;;
23614;SDS011;11985;49.404;7.734;2023-03-23T22:34:34;7.57;;;4.13;;
23614;SDS011;11985;49.404;7.734;2023-03-23T22:39:37;7.50;;;4.43;;
23614;SDS011;11985;49.404;7.734;2023-03-23T22:44:39;8.45;;;4.30;;
23614;SDS011;11985;49.404;7.734;2023-03-23T22:49:41;8.05;;;4.20;;
23614;SDS011;11985;49.404;7.734;2023-03-23T22:54:44;10.18;;;3.75;;
23614;SDS011;11985;49.404;7.734;2023-03-23T22:59:47;8.33;;;5.10;;
23614;SDS011;11985;49.404;7.734;2023-03-23T23:04:48;7.13;;;4.22;;
23614;SDS011;11985;49.404;7.734;2023-03-23T23:09:52;7.40;;;4.10;;
23614;SDS011;11985;49.404;7.734;2023-03-23T23:14:53;5.90;;;4.03;;
23614;SDS011;11985;49.404;7.734;2023-03-23T23:19:57;6.93;;;3.40;;
23614;SDS011;11985;49.404;7.734;2023-03-23T23:25:01;5.70;;;3.95;;
23614;SDS011;11985;49.404;7.734;2023-03-23T23:30:03;10.75;;;4.20;;
23614;SDS011;11985;49.404;7.734;2023-03-23T23:35:07;5.83;;;3.77;;
23614;SDS011;11985;49.404;7.734;2023-03-23T23:40:12;6.18;;;3.83;;
23614;SDS011;11985;49.404;7.734;2023-03-23T23:45:14;10.38;;;4.65;;
23614;SDS011;11985;49.404;7.734;2023-03-23T23:50:17;7.93;;;4.35;;
23614;SDS011;11985;49.404;7.734;2023-03-23T23:55:20;6.50;;;4.18;;
